Time;durP1;ratioP1;P1;durP2;ratioP2;P2;SDS_P1;SDS_P2;PMS_P1;PMS_P2;Temp;Humidity;BMP_temperature;BMP_pressure;BME280_temperature;BME280_humidity;BME280_pressure;Samples;Min_cycle;Max_cycle;Signal;HPM_P1;HPM_P2
2021/01/06 00:01:30;;;;;;;51.00;27.58;;;;;;;2.39;100.00;101350.94;6275383;22;20030;-91
2021/01/06 00:03:56;;;;;;;52.35;26.27;;;;;;;2.36;100.00;101346.69;6269264;22;20450;-88
2021/01/06 00:06:26;;;;;;;53.30;27.95;;;;;;;2.35;100.00;101347.59;6298545;22;20057;-87
2021/01/06 00:08:51;;;;;;;55.47;28.60;;;;;;;2.33;100.00;101349.53;6275144;22;20039;-89
2021/01/06 00:11:17;;;;;;;52.72;27.08;;;;;;;2.34;100.00;101356.50;6303538;22;20015;-91
2021/01/06 00:13:45;;;;;;;56.88;30.02;;;;;;;2.34;100.00;101351.22;6299445;22;20011;-89
2021/01/06 00:16:11;;;;;;;55.45;30.05;;;;;;;2.33;100.00;101349.53;6272290;22;20016;-88
2021/01/06 00:18:36;;;;;;;55.67;30.23;;;;;;;2.31;100.00;101340.81;6295325;22;20527;-90
2021/01/06 00:21:02;;;;;;;56.92;30.42;;;;;;;2.30;100.00;101352.34;6298092;22;20178;-86
2021/01/06 00:23:27;;;;;;;59.15;29.60;;;;;;;2.33;100.00;101348.66;6295970;22;20020;-88
2021/01/06 00:25:53;;;;;;;55.38;28.85;;;;;;;2.31;100.00;101354.06;6298205;22;20038;-91
2021/01/06 00:28:20;;;;;;;52.03;27.95;;;;;;;2.30;100.00;101351.50;6273080;22;20016;-89
2021/01/06 00:30:54;;;;;;;53.88;27.60;;;;;;;2.28;100.00;101342.81;6271759;22;20027;-88
2021/01/06 00:33:23;;;;;;;53.20;27.98;;;;;;;2.26;100.00;101349.03;6272504;22;20035;-91
2021/01/06 00:35:55;;;;;;;53.38;29.38;;;;;;;2.25;100.00;101354.44;6297451;22;20442;-89
2021/01/06 00:38:20;;;;;;;53.55;29.20;;;;;;;2.24;100.00;101353.59;6272126;22;20081;-89
2021/01/06 00:40:46;;;;;;;50.28;26.42;;;;;;;2.21;100.00;101345.81;6271814;22;20023;-88
2021/01/06 00:43:14;;;;;;;47.83;26.38;;;;;;;2.22;100.00;101344.06;6298545;22;20446;-90
2021/01/06 00:45:40;;;;;;;52.88;26.73;;;;;;;2.21;100.00;101339.69;6297127;22;20011;-86
2021/01/06 00:48:05;;;;;;;48.95;26.65;;;;;;;2.18;100.00;101340.72;6274128;22;20062;-86
2021/01/06 00:50:32;;;;;;;46.75;25.38;;;;;;;2.18;100.00;101337.22;6247181;22;20012;-89
2021/01/06 00:53:06;;;;;;;46.33;25.83;;;;;;;2.17;100.00;101327.59;6298971;22;20022;-91
2021/01/06 00:55:32;;;;;;;46.75;25.60;;;;;;;2.17;100.00;101338.19;6273916;22;20023;-88
2021/01/06 00:57:58;;;;;;;45.97;24.70;;;;;;;2.19;100.00;101337.16;6220099;22;20073;-88
2021/01/06 01:00:28;;;;;;;48.47;25.27;;;;;;;2.22;100.00;101336.09;6248734;22;20036;-87
2021/01/06 01:02:53;;;;;;;45.50;25.23;;;;;;;2.16;100.00;101332.03;6246598;22;20012;-88
2021/01/06 01:05:24;;;;;;;45.05;24.10;;;;;;;2.20;100.00;101330.03;6248044;22;20018;-92
2021/01/06 01:07:51;;;;;;;42.13;23.38;;;;;;;2.17;100.00;101327.59;6247103;22;20037;-90
2021/01/06 01:10:34;;;;;;;45.03;25.83;;;;;;;2.17;100.00;101330.25;6245796;22;20016;-91
2021/01/06 01:13:02;;;;;;;45.65;26.10;;;;;;;2.18;100.00;101324.00;6245105;22;20039;-89
2021/01/06 01:15:31;;;;;;;49.63;28.10;;;;;;;2.19;100.00;101333.66;6274166;22;20016;-89
2021/01/06 01:17:56;;;;;;;43.90;23.30;;;;;;;2.16;100.00;101325.91;6246503;22;20313;-90
2021/01/06 01:20:22;;;;;;;46.50;24.88;;;;;;;2.18;100.00;101332.78;6250219;22;20250;-85
2021/01/06 01:22:48;;;;;;;45.75;25.15;;;;;;;2.16;100.00;101326.75;6254168;22;20019;-90
2021/01/06 01:25:19;;;;;;;46.45;25.52;;;;;;;2.17;100.00;101330.25;6251596;22;20016;-85
2021/01/06 01:27:46;;;;;;;45.05;25.20;;;;;;;2.14;100.00;101333.94;6283921;22;20024;-85
2021/01/06 01:30:26;;;;;;;47.45;24.58;;;;;;;2.14;100.00;101333.94;6283277;22;20018;-86
2021/01/06 01:32:53;;;;;;;45.28;23.55;;;;;;;2.14;100.00;101327.78;6256231;22;20023;-87
2021/01/06 01:35:22;;;;;;;42.05;24.55;;;;;;;2.14;100.00;101330.44;6282453;22;20019;-85
2021/01/06 01:37:48;;;;;;;;;;;;;;;2.14;100.00;101327.78;6256720;22;20024;-84
2021/01/06 01:40:24;;;;;;;43.13;24.38;;;;;;;2.08;100.00;101338.78;6245684;22;19937;-87
2021/01/06 01:42:56;;;;;;;44.60;25.60;;;;;;;2.09;100.00;101340.47;6254490;22;20042;-85
2021/01/06 01:45:27;;;;;;;45.70;26.00;;;;;;;2.11;100.00;101328.84;6254895;22;20072;-86
2021/01/06 01:48:03;;;;;;;46.08;24.35;;;;;;;2.11;100.00;101327.97;6251054;22;20020;-89
2021/01/06 01:50:30;;;;;;;41.30;24.13;;;;;;;2.08;100.00;101325.53;6281007;22;20030;-86
2021/01/06 01:53:09;;;;;;;46.17;24.67;;;;;;;2.13;100.00;101320.78;6251841;22;20012;-92
2021/01/06 01:55:36;;;;;;;46.90;24.40;;;;;;;2.13;100.00;101323.41;6273362;22;20446;-88
2021/01/06 01:58:07;;;;;;;42.85;23.38;;;;;;;2.13;100.00;101326.06;6246698;22;20400;-87
2021/01/06 02:00:37;;;;;;;39.53;22.75;;;;;;;2.09;100.00;101325.41;6246263;22;20016;-87
2021/01/06 02:03:18;;;;;;;46.53;24.85;;;;;;;2.06;100.00;101324.78;6249447;22;20066;-86
2021/01/06 02:06:02;;;;;;;42.15;24.83;;;;;;;2.04;100.00;101322.19;6254605;22;20039;-85
2021/01/06 02:08:35;;;;;;;40.83;23.92;;;;;;;2.03;100.00;101321.34;6251479;22;20016;-86
2021/01/06 02:11:06;;;;;;;39.90;22.60;;;;;;;2.03;100.00;101320.50;6273386;22;20023;-88
2021/01/06 02:13:42;;;;;;;34.40;21.67;;;;;;;2.05;100.00;101317.78;6246120;22;20016;-89
2021/01/06 02:16:33;;;;;;;39.25;24.17;;;;;;;2.06;100.00;101319.47;6281504;22;20012;-86
2021/01/06 02:18:59;;;;;;;39.83;24.35;;;;;;;2.03;100.00;101321.34;6253970;22;20016;-86
2021/01/06 02:21:26;;;;;;;36.25;22.33;;;;;;;2.02;100.00;101322.31;6280840;22;20098;-85
2021/01/06 02:23:56;;;;;;;36.55;23.17;;;;;;;2.03;100.00;101320.50;6253834;22;20042;-88
2021/01/06 02:26:24;;;;;;;35.10;21.75;;;;;;;2.01;100.00;101319.75;6253754;22;20020;-88
2021/01/06 02:28:49;;;;;;;37.22;22.23;;;;;;;2.05;100.00;101312.50;6249473;22;20118;-87
2021/01/06 02:31:16;;;;;;;32.58;20.50;;;;;;;2.02;100.00;101322.31;6251628;22;20012;-90
2021/01/06 02:33:42;;;;;;;31.77;21.10;;;;;;;2.03;100.00;101315.22;6247458;22;20098;-89
2021/01/06 02:36:08;;;;;;;32.53;20.90;;;;;;;2.05;100.00;101312.50;6249147;22;20059;-88
2021/01/06 02:38:34;;;;;;;35.47;21.88;;;;;;;2.04;100.00;101314.25;6250035;22;20015;-90
2021/01/06 02:41:00;;;;;;;31.38;20.25;;;;;;;2.05;100.00;101315.13;6277748;22;20035;-88
2021/01/06 02:43:27;;;;;;;28.00;18.40;;;;;;;2.02;100.00;101309.09;6250616;22;20007;-89
2021/01/06 02:45:54;;;;;;;30.90;19.08;;;;;;;2.03;100.00;101321.34;6247266;22;20020;-86
2021/01/06 02:48:20;;;;;;;29.40;19.55;;;;;;;2.03;100.00;101316.06;6248338;22;20128;-87
2021/01/06 02:50:50;;;;;;;31.75;20.63;;;;;;;2.05;100.00;101318.63;6246410;22;20011;-90
2021/01/06 02:53:22;;;;;;;29.13;19.48;;;;;;;2.03;100.00;101313.41;6248663;22;20091;-87
2021/01/06 02:55:49;;;;;;;30.45;19.70;;;;;;;2.02;100.00;101318.81;6261974;22;20016;-87
2021/01/06 02:58:21;;;;;;;29.73;20.00;;;;;;;1.98;100.00;101312.84;6275659;22;20007;-88
2021/01/06 03:00:48;;;;;;;31.17;20.40;;;;;;;2.03;100.00;101310.78;6276837;22;20092;-89
2021/01/06 03:03:13;;;;;;;31.52;21.35;;;;;;;2.02;100.00;101309.09;6274104;22;20020;-88
2021/01/06 03:05:42;;;;;;;30.00;18.98;;;;;;;1.99;100.00;101314.56;6273150;22;20104;-88
2021/01/06 03:08:10;;;;;;;30.98;20.27;;;;;;;2.07;100.00;101316.72;6280036;22;20050;-85
2021/01/06 03:10:36;;;;;;;29.92;19.60;;;;;;;2.01;100.00;101307.41;6285292;22;20016;-85
2021/01/06 03:13:02;;;;;;;31.38;20.70;;;;;;;2.00;100.00;101304.81;6288951;22;20019;-85
2021/01/06 03:15:28;;;;;;;33.47;20.60;;;;;;;2.00;100.00;101310.97;6285656;22;20015;-86
2021/01/06 03:17:57;;;;;;;35.53;20.92;;;;;;;1.99;100.00;101311.94;6284943;22;20046;-85
2021/01/06 03:20:47;;;;;;;31.83;20.58;;;;;;;2.01;100.00;101304.75;6312409;22;20030;-85
2021/01/06 03:23:34;;;;;;;31.55;19.80;;;;;;;2.00;100.00;101316.25;6232878;22;20065;-85
2021/01/06 03:26:08;;;;;;;34.97;21.98;;;;;;;1.97;100.00;101321.75;6285022;22;20024;-85
2021/01/06 03:28:35;;;;;;;32.63;21.05;;;;;;;1.95;100.00;101318.34;6307986;22;20656;-85
2021/01/06 03:31:05;;;;;;;33.55;19.52;;;;;;;1.93;100.00;101320.25;6287793;22;20465;-85
2021/01/06 03:33:41;;;;;;;32.30;21.13;;;;;;;1.96;100.00;101325.34;6310487;22;20043;-85
2021/01/06 03:36:11;;;;;;;34.90;21.10;;;;;;;1.97;100.00;101323.56;6287969;22;20046;-85
2021/01/06 03:38:42;;;;;;;31.23;19.95;;;;;;;1.93;100.00;101325.53;6284596;22;20366;-86
2021/01/06 03:41:08;;;;;;;31.65;20.25;;;;;;;1.95;100.00;101322.78;6286247;22;20016;-85
2021/01/06 03:43:40;;;;;;;31.63;20.00;;;;;;;1.93;100.00;101320.25;6276580;22;20035;-85
2021/01/06 03:46:17;;;;;;;32.47;20.05;;;;;;;1.94;100.00;101318.44;6276495;22;20043;-90
2021/01/06 03:48:54;;;;;;;34.53;21.00;;;;;;;1.93;100.00;101320.25;6279322;22;20011;-89
2021/01/06 03:51:58;;;;;;;33.35;20.20;;;;;;;1.90;100.00;101317.78;6278398;22;20450;-85
2021/01/06 03:54:50;;;;;;;31.10;19.63;;;;;;;1.89;100.00;101310.78;6237155;22;20407;-88
2021/01/06 03:57:17;;;;;;;31.63;20.40;;;;;;;1.89;100.00;101307.28;6203508;22;20067;-88
2021/01/06 03:59:47;;;;;;;33.80;21.60;;;;;;;1.88;100.00;101310.91;6249337;22;20365;-90
2021/01/06 04:02:40;;;;;;;31.13;20.65;;;;;;;1.90;100.00;101304.56;6273676;22;20457;-88
2021/01/06 04:05:08;;;;;;;32.17;21.95;;;;;;;1.89;100.00;101308.13;6200161;22;20018;-93
2021/01/06 04:07:50;;;;;;;32.80;20.85;;;;;;;1.85;100.00;101306.66;6282556;22;20051;-86
2021/01/06 04:10:31;;;;;;;34.55;21.48;;;;;;;1.89;100.00;101310.78;6278872;22;20078;-89
2021/01/06 04:12:57;;;;;;;32.45;20.15;;;;;;;1.90;100.00;101312.50;6250850;22;20038;-87
2021/01/06 04:15:22;;;;;;;32.70;22.13;;;;;;;1.89;100.00;101302.84;6251613;22;20016;-86
2021/01/06 04:17:51;;;;;;;31.90;20.77;;;;;;;1.87;100.00;101312.69;6280270;22;20051;-85
2021/01/06 04:20:20;;;;;;;31.45;19.17;;;;;;;1.80;100.00;101303.41;6258680;22;20012;-85
2021/01/06 04:22:47;;;;;;;26.60;17.50;;;;;;;1.83;100.00;101303.22;6286363;22;20015;-84
2021/01/06 04:25:26;;;;;;;29.90;19.63;;;;;;;1.84;100.00;101299.63;6258658;22;20012;-85
2021/01/06 04:28:10;;;;;;;28.08;18.23;;;;;;;1.79;100.00;101302.56;6249907;22;20015;-86
2021/01/06 04:30:42;;;;;;;26.98;17.58;;;;;;;1.77;100.00;101299.16;6249464;22;20007;-89
2021/01/06 04:33:14;;;;;;;23.90;16.23;;;;;;;1.76;100.00;101283.41;6248594;22;20020;-87
2021/01/06 04:35:39;;;;;;;26.05;16.85;;;;;;;1.77;100.00;101301.81;6274778;22;20038;-88
2021/01/06 04:38:06;;;;;;;27.40;17.50;;;;;;;1.77;100.00;101290.38;6252620;22;20446;-88
2021/01/06 04:40:38;;;;;;;27.63;16.98;;;;;;;1.73;100.00;101287.09;6271958;22;20031;-86
2021/01/06 04:43:20;;;;;;;29.25;17.25;;;;;;;1.75;100.00;101284.31;6277113;22;20011;-87
2021/01/06 04:45:56;;;;;;;25.23;17.33;;;;;;;1.73;100.00;101279.16;6250526;22;20015;-87
2021/01/06 04:48:32;;;;;;;27.15;16.00;;;;;;;1.73;100.00;101286.25;6277448;22;20385;-89
2021/01/06 04:51:20;;;;;;;26.30;17.05;;;;;;;1.74;100.00;101277.34;6248074;22;20066;-89
2021/01/06 04:53:59;;;;;;;25.02;16.60;;;;;;;1.68;100.00;101278.56;6251232;22;20039;-84
2021/01/06 04:56:49;;;;;;;25.13;16.90;;;;;;;1.70;100.00;101276.69;6270883;22;20098;-88
2021/01/06 04:59:15;;;;;;;24.42;16.30;;;;;;;1.70;100.00;101275.84;6272854;22;20060;-87
2021/01/06 05:02:18;;;;;;;23.75;15.35;;;;;;;1.68;100.00;101277.72;6271834;22;20454;-94
2021/01/06 05:05:05;;;;;;;24.80;15.25;;;;;;;1.69;100.00;101284.72;6272648;22;20008;-86
2021/01/06 05:08:12;;;;;;;23.58;15.38;;;;;;;1.67;100.00;101281.31;6275054;22;20076;-89
2021/01/06 05:10:59;;;;;;;24.70;16.48;;;;;;;1.66;100.00;101280.47;6252756;22;20019;-89
2021/01/06 05:13:27;;;;;;;25.98;16.45;;;;;;;1.69;100.00;101274.13;6273661;22;20012;-92
2021/01/06 05:16:01;;;;;;;26.65;16.08;;;;;;;1.69;100.00;101272.31;6274809;22;20019;-90
2021/01/06 05:18:27;;;;;;;26.73;16.40;;;;;;;1.70;100.00;101275.84;6271072;22;20024;-91
2021/01/06 05:20:57;;;;;;;25.55;16.48;;;;;;;1.70;100.00;101275.84;6276078;22;20049;-90
2021/01/06 05:23:27;;;;;;;24.35;16.17;;;;;;;1.70;100.00;101273.22;6274928;22;20035;-91
2021/01/06 05:25:54;;;;;;;26.73;16.58;;;;;;;1.66;100.00;101271.69;6272044;22;20047;-90
2021/01/06 05:28:22;;;;;;;24.10;15.20;;;;;;;1.70;100.00;101275.84;6272176;22;20035;-93
2021/01/06 05:30:52;;;;;;;23.35;15.25;;;;;;;1.69;100.00;101269.69;6275268;22;19999;-89
2021/01/06 05:33:24;;;;;;;24.58;15.40;;;;;;;1.65;100.00;101270.84;6274812;22;20346;-91
2021/01/06 05:35:50;;;;;;;25.17;15.75;;;;;;;1.71;100.00;101266.97;6275914;22;20015;-89
2021/01/06 05:38:15;;;;;;;24.63;15.63;;;;;;;1.71;100.00;101269.59;6271338;22;20111;-91
2021/01/06 05:40:43;;;;;;;26.20;15.50;;;;;;;1.68;100.00;101260.06;6249873;22;20012;-89
2021/01/06 05:43:17;;;;;;;24.40;14.85;;;;;;;1.68;100.00;101272.44;6273657;22;20019;-91
2021/01/06 05:45:47;;;;;;;25.10;14.57;;;;;;;1.70;100.00;101270.56;6273227;22;20035;-88
2021/01/06 05:48:30;;;;;;;24.85;15.93;;;;;;;1.67;100.00;101268.06;6274798;22;20012;-93
2021/01/06 05:51:11;;;;;;;24.85;15.23;;;;;;;1.63;100.00;101262.13;6299021;22;20098;-87
2021/01/06 05:53:53;;;;;;;25.92;15.80;;;;;;;1.64;100.00;101266.50;6273638;22;20031;-85
2021/01/06 05:56:43;;;;;;;24.30;15.88;;;;;;;1.64;100.00;101261.19;6273903;22;20026;-88
2021/01/06 05:59:54;;;;;;;28.60;17.77;;;;;;;1.62;100.00;101260.44;6277597;22;20454;-91
2021/01/06 06:02:41;;;;;;;27.05;17.23;;;;;;;1.64;100.00;101266.50;6205578;23;20023;-87
2021/01/06 06:05:30;;;;;;;25.13;16.95;;;;;;;1.58;100.00;101265.06;6222712;23;20447;-88
2021/01/06 06:08:07;;;;;;;26.00;15.38;;;;;;;1.57;100.00;101263.34;6221504;23;20050;-86
2021/01/06 06:11:04;;;;;;;26.88;16.05;;;;;;;1.60;100.00;101253.53;6225153;22;20046;-85
2021/01/06 06:13:57;;;;;;;23.60;15.27;;;;;;;1.56;100.00;101248.44;6248434;22;20023;-89
2021/01/06 06:16:22;;;;;;;26.05;17.02;;;;;;;1.64;100.00;101260.31;6216750;23;20347;-87
2021/01/06 06:18:57;;;;;;;29.45;15.27;;;;;;;1.58;100.00;101257.16;6214999;22;20016;-87
2021/01/06 06:21:42;;;;;;;27.80;17.48;;;;;;;1.58;100.00;101257.16;6223216;23;20016;-93
2021/01/06 06:24:26;;;;;;;25.27;16.08;;;;;;;1.58;100.00;101257.16;6175185;23;20016;-90
2021/01/06 06:26:55;;;;;;;24.95;15.30;;;;;;;1.57;100.00;101258.06;6243249;22;20027;-88
2021/01/06 06:29:30;;;;;;;27.33;15.05;;;;;;;1.58;100.00;101257.16;6217680;23;20153;-89
2021/01/06 06:31:57;;;;;;;25.20;16.05;;;;;;;1.60;100.00;101253.53;6218344;23;20020;-94
2021/01/06 06:34:32;;;;;;;28.73;17.75;;;;;;;1.64;100.00;101255.03;6218729;23;20071;-87
2021/01/06 06:37:06;;;;;;;25.15;16.85;;;;;;;1.60;100.00;101264.13;6218319;23;20091;-87
2021/01/06 06:39:37;;;;;;;28.08;17.55;;;;;;;1.60;100.00;101262.31;6237027;22;20035;-88
2021/01/06 06:42:15;;;;;;;30.08;18.63;;;;;;;1.62;100.00;101267.53;6233166;23;20016;-87
2021/01/06 06:45:20;;;;;;;26.63;17.25;;;;;;;1.58;100.00;101264.19;6235709;22;20031;-88
2021/01/06 06:47:49;;;;;;;25.63;15.68;;;;;;;1.54;100.00;101266.19;6220927;22;20012;-86
2021/01/06 06:50:43;;;;;;;23.40;15.38;;;;;;;1.58;100.00;101273.00;6248305;23;20017;-86
2021/01/06 06:53:23;;;;;;;28.75;16.90;;;;;;;1.58;100.00;101272.13;6232865;23;20043;-87
2021/01/06 06:56:01;;;;;;;27.60;16.48;;;;;;;1.57;100.00;101271.28;6249861;23;20024;-94
2021/01/06 06:58:43;;;;;;;27.33;16.85;;;;;;;1.55;100.00;101273.22;6261941;22;20024;-89
2021/01/06 07:01:16;;;;;;;25.92;16.55;;;;;;;1.54;100.00;101276.78;6267177;22;20016;-86
2021/01/06 07:03:57;;;;;;;27.67;17.63;;;;;;;1.56;100.00;101279.34;6287640;22;20035;-85
2021/01/06 07:06:23;;;;;;;26.88;16.85;;;;;;;1.55;100.00;101283.78;6256694;22;20019;-84
2021/01/06 07:08:52;;;;;;;23.40;16.48;;;;;;;1.52;100.00;101272.53;6270889;22;20034;-84
2021/01/06 07:11:45;;;;;;;26.95;16.88;;;;;;;1.55;100.00;101281.16;6288228;22;20011;-84
2021/01/06 07:14:27;;;;;;;30.20;18.02;;;;;;;1.55;100.00;101278.50;6287589;22;20094;-89
2021/01/06 07:16:55;;;;;;;27.98;16.98;;;;;;;1.51;100.00;101278.75;6284565;22;20070;-87
2021/01/06 07:19:53;;;;;;;26.55;18.02;;;;;;;1.48;100.00;101276.31;6284512;22;20023;-88
2021/01/06 07:22:18;;;;;;;29.05;17.50;;;;;;;1.46;100.00;101283.47;6252249;23;20012;-84
2021/01/06 07:25:07;;;;;;;28.25;17.02;;;;;;;1.46;100.00;101283.47;6247971;22;20031;-89
2021/01/06 07:27:34;;;;;;;27.02;17.90;;;;;;;1.42;100.00;101285.47;6247402;22;20031;-87
2021/01/06 07:30:00;;;;;;;25.67;16.77;;;;;;;1.44;100.00;101285.34;6253782;22;20020;-87
2021/01/06 07:32:52;;;;;;;30.17;17.90;;;;;;;1.44;100.00;101290.66;6243688;22;20020;-84
2021/01/06 07:35:25;;;;;;;26.73;19.33;;;;;;;1.43;100.00;101299.53;6216518;23;20024;-87
2021/01/06 07:38:06;;;;;;;29.50;17.50;;;;;;;1.41;100.00;101291.72;6243183;22;20192;-86
2021/01/06 07:40:40;;;;;;;27.30;16.48;;;;;;;1.41;100.00;101299.66;6255084;22;20023;-85
2021/01/06 07:43:16;;;;;;;27.63;17.30;;;;;;;1.38;100.00;101298.97;6247208;23;20089;-86
2021/01/06 07:45:52;;;;;;;28.13;16.90;;;;;;;1.35;100.00;101297.34;6243714;22;20108;-84
2021/01/06 07:48:27;;;;;;;30.15;18.25;;;;;;;1.39;100.00;101298.03;6293375;22;20011;-88
2021/01/06 07:51:32;;;;;;;27.70;17.27;;;;;;;1.34;100.00;101298.31;6269748;22;20020;-90
2021/01/06 07:54:14;;;;;;;25.73;17.00;;;;;;;1.32;100.00;101303.69;6274204;22;20003;-88
2021/01/06 07:56:39;;;;;;;26.65;17.70;;;;;;;1.32;100.00;101302.81;6279445;22;20020;-86
2021/01/06 07:59:27;;;;;;;25.58;16.30;;;;;;;1.31;100.00;101301.13;6278987;22;20020;-87
2021/01/06 08:02:09;;;;;;;29.00;16.60;;;;;;;1.28;100.00;101303.97;6277011;22;20094;-86
2021/01/06 08:05:02;;;;;;;27.55;17.10;;;;;;;1.24;100.00;101305.94;6281054;22;20027;-86
2021/01/06 08:07:28;;;;;;;27.63;17.33;;;;;;;1.32;100.00;101302.81;6281008;22;20011;-85
2021/01/06 08:09:54;;;;;;;25.20;16.58;;;;;;;1.25;100.00;101307.63;6284282;22;20091;-86
2021/01/06 08:12:37;;;;;;;27.17;18.50;;;;;;;1.30;100.00;101310.03;6278444;22;20012;-85
2021/01/06 08:15:18;;;;;;;24.58;15.85;;;;;;;1.21;100.00;101315.84;6283526;22;20023;-85
2021/01/06 08:17:56;;;;;;;25.00;16.13;;;;;;;1.27;100.00;101310.22;6273448;22;20346;-91
2021/01/06 08:20:28;;;;;;;25.00;16.52;;;;;;;1.28;100.00;101312.75;6273393;22;20043;-91
2021/01/06 08:23:16;;;;;;;26.20;16.35;;;;;;;1.26;100.00;101308.47;6272377;22;20058;-87
2021/01/06 08:25:55;;;;;;;21.93;15.97;;;;;;;1.28;100.00;101312.75;6272532;22;20469;-90
2021/01/06 08:28:27;;;;;;;23.70;15.05;;;;;;;1.24;100.00;101313.88;6275817;22;20075;-90
2021/01/06 08:31:04;;;;;;;27.52;17.52;;;;;;;1.31;100.00;101319.63;6274837;22;20015;-88
2021/01/06 08:33:30;;;;;;;24.63;15.68;;;;;;;1.28;100.00;101311.91;6272494;22;20024;-87
2021/01/06 08:36:00;;;;;;;24.73;16.02;;;;;;;1.34;100.00;101316.81;6271247;22;20439;-91
2021/01/06 08:38:33;;;;;;;21.48;14.63;;;;;;;1.36;100.00;101320.22;6275119;22;20323;-91
2021/01/06 08:41:18;;;;;;;25.55;16.80;;;;;;;1.36;100.00;101317.59;6272355;22;20016;-89
2021/01/06 08:43:44;;;;;;;21.45;15.35;;;;;;;1.34;100.00;101319.47;6271652;22;20188;-91
2021/01/06 08:46:25;;;;;;;24.02;16.20;;;;;;;1.34;100.00;101316.81;6274012;22;20462;-89
2021/01/06 08:48:51;;;;;;;23.40;16.58;;;;;;;1.36;100.00;101314.94;6268424;22;20077;-89
2021/01/06 08:51:30;;;;;;;21.38;15.02;;;;;;;1.32;100.00;101310.75;6272553;22;20039;-90
2021/01/06 08:53:56;;;;;;;24.23;15.18;;;;;;;1.31;100.00;101317.00;6271048;22;20015;-89
2021/01/06 08:56:26;;;;;;;25.90;16.83;;;;;;;1.33;100.00;101309.84;6295838;22;20024;-88
2021/01/06 08:58:55;;;;;;;22.38;16.30;;;;;;;1.31;100.00;101322.28;6267203;22;20129;-93
2021/01/06 09:01:34;;;;;;;23.05;16.10;;;;;;;1.35;100.00;101319.38;6271754;22;20079;-88
2021/01/06 09:04:08;;;;;;;25.63;16.48;;;;;;;1.34;100.00;101316.81;6245713;22;20016;-92
2021/01/06 09:06:34;;;;;;;25.67;16.38;;;;;;;1.34;100.00;101314.16;6270315;22;20020;-90
2021/01/06 09:09:02;;;;;;;21.85;14.57;;;;;;;1.29;100.00;101313.59;6270714;22;20031;-88
2021/01/06 09:11:53;;;;;;;24.83;16.73;;;;;;;1.37;100.00;101313.97;6270577;22;20030;-93
2021/01/06 09:14:36;;;;;;;24.73;16.95;;;;;;;1.31;100.00;101314.34;6271660;22;20008;-91
2021/01/06 09:17:07;;;;;;;24.98;16.77;;;;;;;1.33;100.00;101315.13;6245109;22;20450;-89
2021/01/06 09:19:45;;;;;;;25.17;16.08;;;;;;;1.34;100.00;101316.81;6270140;22;20492;-90
2021/01/06 09:22:12;;;;;;;26.63;17.00;;;;;;;1.33;100.00;101317.75;6272335;22;20049;-90
2021/01/06 09:24:40;;;;;;;24.08;16.92;;;;;;;1.36;100.00;101314.94;6271099;22;20019;-87
2021/01/06 09:27:35;;;;;;;26.77;17.08;;;;;;;1.36;100.00;101314.94;6271638;22;20008;-88
2021/01/06 09:30:16;;;;;;;28.17;18.80;;;;;;;1.42;100.00;101324.28;6246195;22;20083;-90
2021/01/06 09:32:43;;;;;;;23.38;16.25;;;;;;;1.45;100.00;101319.66;6269497;22;20016;-90
2021/01/06 09:35:14;;;;;;;26.77;17.63;;;;;;;1.37;100.00;101316.63;6256089;22;20020;-91
2021/01/06 09:38:03;;;;;;;26.25;17.13;;;;;;;1.42;100.00;101319.84;6250980;22;20461;-91
2021/01/06 09:40:31;;;;;;;27.88;17.83;;;;;;;1.46;100.00;101325.81;6270132;22;20368;-87
2021/01/06 09:43:16;;;;;;;29.27;17.63;;;;;;;1.44;100.00;101322.38;6270618;22;20026;-92
2021/01/06 09:45:42;;;;;;;22.40;14.95;;;;;;;1.37;100.00;101324.56;6271143;22;20016;-88
2021/01/06 09:48:11;;;;;;;21.25;15.85;;;;;;;1.41;100.00;101318.16;6269333;22;20035;-86
2021/01/06 09:50:42;;;;;;;23.23;17.20;;;;;;;1.55;100.00;101328.75;6269145;22;20035;-89
2021/01/06 09:53:13;;;;;;;28.65;18.83;;;;;;;1.53;100.00;101322.69;6271317;22;20445;-90
2021/01/06 09:55:42;;;;;;;28.55;17.77;;;;;;;1.50;100.00;101328.19;6271879;22;20011;-89
2021/01/06 09:58:30;;;;;;;22.60;15.45;;;;;;;1.54;100.00;101329.69;6269227;22;20070;-88
2021/01/06 10:01:14;;;;;;;24.67;16.25;;;;;;;1.55;100.00;101312.88;6268776;22;20020;-86
2021/01/06 10:03:42;;;;;;;22.70;16.77;;;;;;;1.52;100.00;101323.63;6240634;22;20027;-89
2021/01/06 10:06:32;;;;;;;24.08;16.48;;;;;;;1.47;100.00;101312.50;6242373;22;20032;-90
2021/01/06 10:09:28;;;;;;;21.45;15.35;;;;;;;1.53;100.00;101328.00;6239189;23;20019;-89
2021/01/06 10:12:25;;;;;;;23.10;15.82;;;;;;;1.51;100.00;101314.00;6239925;23;20106;-88
2021/01/06 10:15:21;;;;;;;22.45;16.58;;;;;;;1.53;100.00;101316.56;6283717;22;20023;-86
2021/01/06 10:18:03;;;;;;;23.23;16.13;;;;;;;1.53;100.00;101316.56;6272300;22;20446;-90
2021/01/06 10:20:49;;;;;;;21.65;15.40;;;;;;;1.54;100.00;101300.59;6272996;22;20020;-87
2021/01/06 10:23:35;;;;;;;22.73;15.90;;;;;;;1.61;100.00;101301.03;6266692;22;20354;-88
2021/01/06 10:26:22;;;;;;;22.95;16.42;;;;;;;1.65;100.00;101301.75;6192297;23;20016;-89
2021/01/06 10:29:27;;;;;;;24.45;15.35;;;;;;;1.62;100.00;101286.06;6212289;22;20019;-86
2021/01/06 10:32:09;;;;;;;22.70;15.13;;;;;;;1.58;100.00;101290.66;6185229;23;20013;-85
2021/01/06 10:34:38;;;;;;;23.08;15.40;;;;;;;1.56;100.00;101298.72;6146033;22;20030;-86
2021/01/06 10:37:42;;;;;;;22.50;16.00;;;;;;;1.65;100.00;101289.34;6096039;23;20323;-85
2021/01/06 10:40:49;;;;;;;23.33;15.02;;;;;;;1.58;100.00;101286.25;6173884;22;20022;-86
2021/01/06 10:43:59;;;;;;;23.55;15.85;;;;;;;1.55;100.00;101286.44;6032292;23;20027;-86
2021/01/06 10:47:27;;;;;;;20.65;14.43;;;;;;;1.58;100.00;101275.66;5617448;23;11096753;-85
2021/01/06 11:03:06;;;;;;;22.55;15.32;;;;;;;1.43;100.00;101263.34;6014168;23;20352;-88
2021/01/06 11:09:20;;;;;;;18.25;12.20;;;;;;;1.52;100.00;101256.66;5974027;23;20031;-87
2021/01/06 11:11:51;;;;;;;16.73;12.25;;;;;;;1.48;100.00;101253.34;5973236;23;20024;-90
2021/01/06 11:14:33;;;;;;;17.27;12.15;;;;;;;1.52;100.00;101246.91;5996614;23;20418;-92
2021/01/06 11:17:18;;;;;;;17.08;11.50;;;;;;;1.64;100.00;101247.09;5942055;23;20441;-92
2021/01/06 11:19:46;;;;;;;17.00;10.75;;;;;;;1.61;100.00;101239.34;5976100;23;20023;-88
2021/01/06 11:22:43;;;;;;;18.60;11.95;;;;;;;1.56;100.00;101242.31;5977592;23;20084;-94
2021/01/06 11:25:48;;;;;;;20.88;14.10;;;;;;;1.60;100.00;101233.22;6114864;23;20019;-89
2021/01/06 11:28:41;;;;;;;16.20;11.18;;;;;;;1.52;100.00;101230.19;6178479;23;20025;-91
2021/01/06 11:31:18;;;;;;;13.82;10.27;;;;;;;1.51;100.00;101236.44;6155882;23;20599;-91
2021/01/06 11:33:45;;;;;;;17.95;10.00;;;;;;;1.44;100.00;101227.19;6155428;23;20040;-92
2021/01/06 11:36:37;;;;;;;16.95;10.60;;;;;;;1.44;100.00;101232.47;6156648;23;20025;-90
2021/01/06 11:39:06;;;;;;;16.00;10.15;;;;;;;1.47;100.00;101225.22;6207937;22;20048;-90
2021/01/06 11:41:31;;;;;;;16.02;10.95;;;;;;;1.52;100.00;101224.91;6242943;22;20043;-94
2021/01/06 11:43:58;;;;;;;14.55;9.75;;;;;;;1.54;100.00;101217.72;6243353;22;20035;-90
2021/01/06 11:46:26;;;;;;;17.13;9.73;;;;;;;1.49;100.00;101210.06;6270311;22;20019;-90
2021/01/06 11:49:06;;;;;;;13.50;8.18;;;;;;;1.44;100.00;101212.19;6271598;22;20100;-88
2021/01/06 11:51:31;;;;;;;12.85;8.00;;;;;;;1.44;100.00;101219.25;6296422;22;20012;-90
2021/01/06 11:54:10;;;;;;;12.68;8.02;;;;;;;1.39;100.00;101214.25;6274096;22;20019;-91
2021/01/06 11:56:47;;;;;;;12.32;8.10;;;;;;;1.46;100.00;101201.50;6273079;22;20042;-88
2021/01/06 11:59:29;;;;;;;12.68;6.95;;;;;;;1.38;100.00;101196.66;6273376;22;20023;-88
2021/01/06 12:02:02;;;;;;;13.50;7.40;;;;;;;1.52;100.00;101196.66;6250835;22;20016;-90
2021/01/06 12:04:58;;;;;;;14.85;10.98;;;;;;;1.57;100.00;101196.38;6216271;23;20035;-87